Terminal Aerodrome Forecast
Issued by NWS Charleston, WV

Current Version | Previous Version | Graphics & Text | Print | Product List | Glossary On
Versions: 1 2 3 4 5 6 7 8 9 10 11 12 13 14 15 16 17 18 19 20 21 22
299
FTUS41 KRLX 211459 AAA
TAFCRW
TAF AMD
KCRW 211459Z 2115/2212 27007KT P6SM OVC025
     FM211900 29008KT P6SM SCT045
     FM220000 32004KT P6SM BKN070
     FM220500 35005KT P6SM OVC025
     FM220800 36005KT P6SM SHRA OVC020
     FM221000 02005KT P6SM SHRA OVC015=

USA.gov is the U.S. government's official web portal to all federal, state and local government web resources and services.